Time;durP1;ratioP1;P1;durP2;ratioP2;P2;SDS_P1;SDS_P2;PMS_P1;PMS_P2;Temp;Humidity;BMP_temperature;BMP_pressure;BME280_temperature;BME280_humidity;BME280_pressure;Samples;Min_cycle;Max_cycle;Signal;HPM_P1;HPM_P2
2022/07/30 00:01:19;;;;;;;0.00;0.00;;;;;;;17.68;85.71;100419.00;5071768;28;20676;-72
2022/07/30 00:03:44;;;;;;;0.07;0.07;;;;;;;17.67;85.80;100420.97;5073183;28;20182;-72
2022/07/30 00:06:09;;;;;;;0.00;0.00;;;;;;;17.64;86.41;100416.13;5072984;28;21043;-71
2022/07/30 00:08:35;;;;;;;0.00;0.00;;;;;;;17.61;86.79;100416.88;5072583;28;20726;-72
2022/07/30 00:11:00;;;;;;;0.20;0.20;;;;;;;17.59;87.09;100419.19;5071638;28;20182;-71
2022/07/30 00:13:25;;;;;;;0.00;0.00;;;;;;;17.50;87.87;100418.56;5072888;28;20705;-71
2022/07/30 00:15:51;;;;;;;0.23;0.23;;;;;;;17.40;88.76;100411.66;5072835;28;20562;-72
2022/07/30 00:18:16;;;;;;;0.20;0.20;;;;;;;17.36;89.57;100416.28;5072385;28;20178;-72
2022/07/30 00:20:41;;;;;;;0.00;0.00;;;;;;;17.33;89.59;100417.00;5072813;28;20174;-72
2022/07/30 00:23:07;;;;;;;1.50;1.50;;;;;;;17.33;89.97;100411.47;5072609;28;20262;-72
2022/07/30 00:25:32;;;;;;;0.67;0.67;;;;;;;17.31;89.81;100408.25;5072604;28;20285;-72
2022/07/30 00:27:58;;;;;;;0.00;0.00;;;;;;;17.33;90.00;100405.94;5071109;28;20197;-72
2022/07/30 00:30:23;;;;;;;0.00;0.00;;;;;;;17.34;90.33;100403.97;5072370;28;20166;-72
2022/07/30 00:32:49;;;;;;;0.07;0.07;;;;;;;17.33;90.66;100407.91;5072461;28;20182;-72
2022/07/30 00:35:14;;;;;;;0.57;0.57;;;;;;;17.28;91.10;100397.13;5072504;28;20197;-72
2022/07/30 00:37:40;;;;;;;0.10;0.10;;;;;;;17.22;91.75;100408.47;5072213;28;20171;-72
2022/07/30 00:40:07;;;;;;;0.10;0.10;;;;;;;17.22;92.32;100399.38;5071359;28;20178;-71
2022/07/30 00:42:43;;;;;;;0.83;0.83;;;;;;;17.20;91.96;100402.47;5070954;28;20649;-71
2022/07/30 00:45:10;;;;;;;0.00;0.00;;;;;;;17.22;92.09;100399.38;5072170;28;20213;-71
2022/07/30 00:47:37;;;;;;;0.10;0.10;;;;;;;17.23;91.87;100401.78;5071988;28;20239;-72
2022/07/30 00:50:04;;;;;;;0.40;0.40;;;;;;;17.26;92.16;100391.97;5071908;28;20529;-71
2022/07/30 00:52:31;;;;;;;0.10;0.10;;;;;;;17.26;92.21;100400.25;5072285;28;20189;-72
2022/07/30 00:54:57;;;;;;;0.00;0.00;;;;;;;17.30;92.16;100403.09;5072460;28;20163;-72
2022/07/30 00:57:22;;;;;;;0.00;0.00;;;;;;;17.31;91.99;100405.50;5070435;28;20224;-72
2022/07/30 00:59:47;;;;;;;0.07;0.07;;;;;;;17.33;91.52;100402.38;5070278;28;20255;-72
2022/07/30 01:02:13;;;;;;;0.00;0.00;;;;;;;17.30;91.79;100414.16;5071974;28;20177;-72
2022/07/30 01:04:38;;;;;;;0.00;0.00;;;;;;;17.27;92.13;100401.06;5072000;28;20666;-72
2022/07/30 01:07:03;;;;;;;0.80;0.77;;;;;;;17.19;92.89;100400.88;5070253;28;20657;-72
2022/07/30 01:09:29;;;;;;;0.20;0.20;;;;;;;17.13;93.94;100405.06;5071510;28;20383;-73
2022/07/30 01:11:55;;;;;;;0.10;0.10;;;;;;;17.07;94.84;100403.75;5071803;28;20170;-72
2022/07/30 01:14:21;;;;;;;0.30;0.30;;;;;;;17.05;95.46;100406.03;5071620;28;20171;-72
2022/07/30 01:16:46;;;;;;;0.53;0.53;;;;;;;17.05;95.81;100406.03;5071467;28;20185;-72
2022/07/30 01:22:28;;;;;;;0.33;0.33;;;;;;;17.03;96.83;100405.59;5071792;28;20177;-72
2022/07/30 01:25:02;;;;;;;3.53;0.73;;;;;;;16.99;97.58;100401.94;5071365;28;20234;-72
2022/07/30 01:27:40;;;;;;;0.30;0.30;;;;;;;16.98;97.66;100394.03;5069908;28;20178;-73
2022/07/30 01:30:07;;;;;;;0.27;0.27;;;;;;;16.91;98.54;100400.16;5071312;28;20173;-73
2022/07/30 01:32:35;;;;;;;0.13;0.13;;;;;;;16.90;99.27;100406.81;5070053;28;20368;-72
2022/07/30 01:35:03;;;;;;;0.10;0.10;;;;;;;16.89;99.91;100408.00;5071227;28;20536;-72
2022/07/30 01:37:32;;;;;;;0.00;0.00;;;;;;;16.87;100.00;100410.31;5069665;28;20171;-72
2022/07/30 01:39:57;;;;;;;0.93;0.93;;;;;;;16.85;100.00;100412.63;5070978;28;20166;-73
2022/07/30 01:42:25;;;;;;;0.23;0.23;;;;;;;16.78;100.00;100417.94;5071230;28;20166;-72
2022/07/30 01:44:51;;;;;;;0.20;0.20;;;;;;;16.75;100.00;100415.88;5071078;28;20225;-72
2022/07/30 01:47:19;;;;;;;0.50;0.50;;;;;;;16.73;100.00;100418.19;5070340;28;20171;-72
2022/07/30 01:49:46;;;;;;;1.43;1.33;;;;;;;16.71;100.00;100412.25;5069447;28;20227;-72
2022/07/30 01:52:13;;;;;;;0.63;0.63;;;;;;;16.69;100.00;100429.16;5070850;28;20637;-73
2022/07/30 01:54:39;;;;;;;0.20;0.20;;;;;;;16.63;100.00;100436.84;5071026;28;20178;-73
2022/07/30 01:57:06;;;;;;;0.20;0.10;;;;;;;16.59;100.00;100438.69;5070401;28;20175;-72
2022/07/30 01:59:34;;;;;;;0.23;0.23;;;;;;;16.57;100.00;100449.28;5070720;28;20174;-72
2022/07/30 02:02:00;;;;;;;0.00;0.00;;;;;;;16.58;100.00;100441.81;5071021;28;20185;-72
2022/07/30 02:04:26;;;;;;;0.00;0.00;;;;;;;16.56;100.00;100450.44;5070700;28;20206;-72
2022/07/30 02:07:01;;;;;;;0.00;0.00;;;;;;;16.58;100.00;100459.16;5069336;28;20277;-72
2022/07/30 02:09:35;;;;;;;0.27;0.27;;;;;;;16.61;100.00;100458.44;5070878;28;20235;-73
2022/07/30 02:14:53;;;;;;;0.17;0.17;;;;;;;16.57;100.00;100463.06;5071137;28;20553;-73
2022/07/30 02:17:27;;;;;;;0.10;0.10;;;;;;;16.56;100.00;100461.47;5069345;28;20177;-73
2022/07/30 02:19:56;;;;;;;0.47;0.47;;;;;;;16.51;100.00;100458.97;5069206;28;20166;-72
2022/07/30 02:22:24;;;;;;;0.43;0.43;;;;;;;16.49;100.00;100474.25;5070724;28;20588;-72
2022/07/30 02:24:50;;;;;;;0.00;0.00;;;;;;;16.47;100.00;100468.28;5069294;28;20198;-73
2022/07/30 02:27:23;;;;;;;0.00;0.00;;;;;;;16.45;100.00;100476.09;5070270;28;20163;-72
2022/07/30 02:29:51;;;;;;;0.07;0.07;;;;;;;16.43;100.00;100473.69;5070580;28;20166;-72
2022/07/30 02:32:19;;;;;;;0.27;0.20;;;;;;;16.44;100.00;100475.31;5070681;28;20170;-72
2022/07/30 02:34:48;;;;;;;0.70;0.70;;;;;;;16.46;100.00;100477.72;5070677;28;20209;-73
2022/07/30 02:37:14;;;;;;;0.07;0.07;;;;;;;16.47;100.00;100482.88;5069131;28;20171;-73
2022/07/30 02:39:42;;;;;;;0.00;0.00;;;;;;;16.51;100.00;100478.28;5070354;28;20167;-73
2022/07/30 02:42:09;;;;;;;0.00;0.00;;;;;;;16.52;100.00;100479.88;5069095;28;20283;-74
2022/07/30 02:44:37;;;;;;;0.00;0.00;;;;;;;16.56;100.00;100483.53;5070460;28;20213;-73
2022/07/30 02:47:04;;;;;;;0.10;0.10;;;;;;;16.56;100.00;100482.75;5070253;28;20182;-73
2022/07/30 02:49:32;;;;;;;0.00;0.00;;;;;;;16.56;100.00;100488.25;5070090;28;20170;-73
2022/07/30 02:51:59;;;;;;;0.20;0.13;;;;;;;16.57;100.00;100481.59;5070449;28;20495;-72
2022/07/30 02:54:27;;;;;;;1.13;1.13;;;;;;;16.54;100.00;100483.09;5070320;28;20324;-73
2022/07/30 02:56:53;;;;;;;0.00;0.00;;;;;;;16.52;100.00;100479.09;5068255;28;20197;-73
2022/07/30 02:59:21;;;;;;;0.00;0.00;;;;;;;16.51;100.00;100477.47;5070154;28;20305;-73
2022/07/30 03:01:48;;;;;;;0.00;0.00;;;;;;;16.51;100.00;100483.81;5070330;28;20170;-73
2022/07/30 03:04:17;;;;;;;0.00;0.00;;;;;;;16.46;100.00;100478.50;5071309;28;20238;-73
2022/07/30 03:06:44;;;;;;;0.10;0.10;;;;;;;16.40;100.00;100484.63;5073881;28;20183;-73
2022/07/30 03:09:09;;;;;;;0.40;0.40;;;;;;;16.37;100.00;100483.38;5072645;28;20174;-72
2022/07/30 03:11:36;;;;;;;0.67;0.67;;;;;;;16.34;100.00;100484.06;5074198;28;20540;-73
2022/07/30 03:14:02;;;;;;;0.00;0.00;;;;;;;16.31;100.00;100493.03;5074019;28;20223;-73
2022/07/30 03:16:29;;;;;;;0.20;0.20;;;;;;;16.31;100.00;100487.53;5073973;28;20171;-73
2022/07/30 03:18:56;;;;;;;0.00;0.00;;;;;;;16.28;100.00;100490.97;5073507;28;20174;-73
2022/07/30 03:21:25;;;;;;;1.03;1.03;;;;;;;16.24;100.00;100492.84;5073944;28;20184;-72
2022/07/30 03:23:53;;;;;;;1.10;1.10;;;;;;;16.19;100.00;100498.56;5073833;28;20170;-73
2022/07/30 03:26:21;;;;;;;1.40;1.00;;;;;;;16.11;100.00;100496.78;5073808;28;20343;-72
2022/07/30 03:28:48;;;;;;;1.10;1.10;;;;;;;16.00;100.00;100502.75;5073347;28;20189;-73
2022/07/30 03:31:15;;;;;;;0.10;0.10;;;;;;;15.95;100.00;100508.50;5073789;28;20257;-74
2022/07/30 03:33:42;;;;;;;0.00;0.00;;;;;;;15.94;100.00;100504.16;5072236;28;20182;-72
2022/07/30 03:36:11;;;;;;;0.00;0.00;;;;;;;16.00;100.00;100511.00;5073488;28;20181;-73
2022/07/30 03:38:38;;;;;;;0.00;0.00;;;;;;;16.09;100.00;100510.09;5073168;28;20175;-73
2022/07/30 03:41:05;;;;;;;0.00;0.00;;;;;;;16.11;100.00;100516.88;5073579;28;20182;-72
2022/07/30 03:43:31;;;;;;;0.00;0.00;;;;;;;16.15;100.00;100512.25;5073482;28;20186;-72
2022/07/30 03:45:57;;;;;;;0.00;0.00;;;;;;;16.32;100.00;100512.00;5073329;28;20206;-73
2022/07/30 03:48:24;;;;;;;0.00;0.00;;;;;;;16.45;100.00;100520.22;5072958;28;20800;-72
2022/07/30 03:50:50;;;;;;;0.00;0.00;;;;;;;16.40;100.00;100529.56;5071986;28;20217;-72
2022/07/30 03:53:18;;;;;;;0.00;0.00;;;;;;;16.40;100.00;100529.56;5072165;28;20337;-73
2022/07/30 03:55:43;;;;;;;0.00;0.00;;;;;;;16.21;100.00;100538.44;5073279;28;20183;-73
2022/07/30 03:58:10;;;;;;;0.00;0.00;;;;;;;16.19;100.00;100540.72;5070879;28;20197;-73
2022/07/30 04:00:39;;;;;;;0.00;0.00;;;;;;;15.93;100.00;100541.13;5073239;28;20273;-73
2022/07/30 04:03:04;;;;;;;0.00;0.00;;;;;;;15.89;100.00;100548.44;5071766;28;20217;-73
2022/07/30 04:05:29;;;;;;;0.00;0.00;;;;;;;16.01;100.00;100555.91;5073170;28;20226;-72
2022/07/30 04:07:55;;;;;;;0.00;0.00;;;;;;;16.12;100.00;100554.31;5072995;28;20191;-73
2022/07/30 04:10:20;;;;;;;0.00;0.00;;;;;;;16.11;100.00;100566.47;5072764;28;20171;-72
2022/07/30 04:12:45;;;;;;;0.00;0.00;;;;;;;16.12;100.00;100567.28;5072873;28;20185;-73
2022/07/30 04:15:11;;;;;;;0.20;0.20;;;;;;;16.14;100.00;100567.75;5071866;28;20650;-73
2022/07/30 04:17:50;;;;;;;0.00;0.00;;;;;;;16.07;100.00;100579.34;5071364;28;20661;-73
2022/07/30 04:20:30;;;;;;;0.00;0.00;;;;;;;16.10;100.00;100575.91;5072663;28;20170;-73
2022/07/30 04:22:56;;;;;;;0.00;0.00;;;;;;;16.20;100.00;100580.13;5072841;28;20638;-73
2022/07/30 04:25:22;;;;;;;0.00;0.00;;;;;;;16.23;100.00;100582.22;5072852;28;20229;-75
2022/07/30 04:27:48;;;;;;;0.17;0.17;;;;;;;16.21;100.00;100574.28;5072701;28;20270;-73
2022/07/30 04:30:13;;;;;;;0.27;0.27;;;;;;;16.22;100.00;100584.16;5070931;28;20174;-73
2022/07/30 04:32:41;;;;;;;0.00;0.00;;;;;;;16.22;100.00;100588.88;5072641;28;20178;-72
2022/07/30 04:35:06;;;;;;;0.37;0.37;;;;;;;16.16;100.00;100577.25;5071176;28;20175;-73
2022/07/30 04:37:32;;;;;;;0.00;0.00;;;;;;;16.13;100.00;100582.66;5072529;28;20511;-73
2022/07/30 04:39:57;;;;;;;0.00;0.00;;;;;;;16.12;100.00;100583.81;5072322;28;20182;-73
2022/07/30 04:42:28;;;;;;;0.00;0.00;;;;;;;16.14;100.00;100578.75;5071184;28;20189;-73
2022/07/30 04:44:54;;;;;;;1.10;1.10;;;;;;;16.06;100.00;100578.56;5066986;28;20226;-73
2022/07/30 04:47:21;;;;;;;0.40;0.40;;;;;;;15.99;100.00;100574.75;5071264;28;20183;-72
2022/07/30 04:49:47;;;;;;;0.43;0.43;;;;;;;15.92;100.00;100575.34;5071977;28;20649;-73
2022/07/30 04:52:14;;;;;;;0.00;0.00;;;;;;;15.91;100.00;100578.41;5072417;28;20170;-73
2022/07/30 04:54:43;;;;;;;0.20;0.20;;;;;;;15.89;100.00;100586.22;5070919;28;20179;-73
2022/07/30 04:57:11;;;;;;;2.73;2.17;;;;;;;15.92;100.00;100574.53;5070157;28;20325;-73
2022/07/30 04:59:37;;;;;;;1.50;1.43;;;;;;;15.97;100.00;100579.81;5072058;28;20198;-73
2022/07/30 05:02:06;;;;;;;0.00;0.00;;;;;;;15.92;100.00;100575.34;5072086;28;20561;-72
2022/07/30 05:04:33;;;;;;;0.20;0.20;;;;;;;15.91;100.00;100572.91;5071932;28;20712;-73
2022/07/30 05:07:01;;;;;;;0.20;0.20;;;;;;;15.89;100.00;100572.44;5070568;28;20183;-73
2022/07/30 05:09:28;;;;;;;0.17;0.17;;;;;;;15.82;100.00;100559.25;5071731;28;20171;-73
2022/07/30 05:11:54;;;;;;;0.30;0.30;;;;;;;15.79;100.00;100559.94;5070481;28;20174;-74
2022/07/30 05:14:21;;;;;;;3.70;2.47;;;;;;;15.70;100.00;100545.47;5071691;28;20174;-73
2022/07/30 05:16:47;;;;;;;2.30;2.20;;;;;;;15.58;100.00;100550.91;5071365;28;20178;-74
2022/07/30 05:19:12;;;;;;;1.60;1.50;;;;;;;15.54;100.00;100539.00;5071311;28;20220;-73
2022/07/30 05:21:38;;;;;;;1.53;0.47;;;;;;;15.49;100.00;100551.03;5071567;28;20261;-74
2022/07/30 05:24:04;;;;;;;0.83;0.83;;;;;;;15.50;100.00;100557.34;5071576;28;20179;-73
2022/07/30 05:26:29;;;;;;;0.67;0.67;;;;;;;15.46;100.00;100555.25;5069841;28;20182;-74
2022/07/30 05:28:54;;;;;;;1.40;1.30;;;;;;;15.46;100.00;100557.22;5071393;28;20175;-75
2022/07/30 05:31:20;;;;;;;0.70;0.70;;;;;;;15.45;100.00;100556.41;5072135;28;20174;-74
2022/07/30 05:33:45;;;;;;;1.60;1.50;;;;;;;15.43;100.00;100550.44;5073332;28;20262;-76
2022/07/30 05:36:11;;;;;;;3.00;2.80;;;;;;;15.43;100.00;100550.44;5068945;28;20553;-73
2022/07/30 05:38:36;;;;;;;3.20;2.57;;;;;;;15.42;100.00;100548.03;5069629;28;20174;-75
2022/07/30 05:41:02;;;;;;;3.33;3.07;;;;;;;15.42;100.00;100546.09;5071326;28;20185;-76
2022/07/30 05:43:27;;;;;;;2.83;2.63;;;;;;;15.45;100.00;100545.38;5070356;28;20188;-76
2022/07/30 05:45:52;;;;;;;1.40;1.40;;;;;;;15.47;100.00;100545.03;5071104;28;20202;-75
2022/07/30 05:48:18;;;;;;;1.10;1.10;;;;;;;15.49;100.00;100542.78;5070737;28;20269;-74
2022/07/30 05:50:44;;;;;;;2.93;2.73;;;;;;;15.50;100.00;100541.63;5071141;28;20186;-75
2022/07/30 05:53:09;;;;;;;1.00;1.00;;;;;;;15.51;100.00;100546.00;5069784;28;20622;-75
2022/07/30 05:55:34;;;;;;;0.97;0.97;;;;;;;15.54;100.00;100539.78;5070991;28;20186;-75
2022/07/30 05:58:00;;;;;;;2.93;1.90;;;;;;;15.57;100.00;100541.06;5069971;28;20537;-74
2022/07/30 06:00:25;;;;;;;1.50;1.40;;;;;;;15.55;100.00;100543.34;5070570;28;20687;-76
2022/07/30 06:02:50;;;;;;;2.33;2.13;;;;;;;15.52;100.00;100552.31;5069656;28;20610;-75
2022/07/30 06:05:16;;;;;;;2.60;1.50;;;;;;;15.54;100.00;100555.50;5070858;28;20208;-75
2022/07/30 06:07:41;;;;;;;1.20;1.20;;;;;;;15.52;100.00;100555.06;5069399;28;20189;-74
2022/07/30 06:10:07;;;;;;;2.57;2.37;;;;;;;15.50;100.00;100558.16;5069356;28;20205;-75
2022/07/30 06:12:32;;;;;;;2.10;1.90;;;;;;;15.53;100.00;100553.91;5070840;28;20178;-76
2022/07/30 06:14:58;;;;;;;1.90;1.73;;;;;;;15.51;100.00;100546.00;5069393;28;20182;-76
2022/07/30 06:17:23;;;;;;;1.53;1.33;;;;;;;15.53;100.00;100549.19;5069243;28;20649;-74
2022/07/30 06:19:50;;;;;;;2.83;2.63;;;;;;;15.57;100.00;100550.13;5070326;28;20634;-76
2022/07/30 06:22:16;;;;;;;1.67;1.57;;;;;;;15.58;100.00;100556.44;5070815;28;20175;-76
2022/07/30 06:24:41;;;;;;;2.53;2.43;;;;;;;15.59;100.00;100558.88;5069234;28;20263;-75
2022/07/30 06:27:07;;;;;;;4.07;3.70;;;;;;;15.61;100.00;100558.53;5069024;28;20175;-75
2022/07/30 06:29:32;;;;;;;0.90;0.90;;;;;;;15.58;100.00;100560.00;5070223;28;20555;-75
2022/07/30 06:31:58;;;;;;;1.60;1.50;;;;;;;15.59;100.00;100556.13;5069085;28;20174;-76
2022/07/30 06:34:23;;;;;;;1.70;1.60;;;;;;;15.61;100.00;100559.31;5070597;28;20186;-75
2022/07/30 06:36:49;;;;;;;2.40;2.30;;;;;;;15.67;100.00;100562.69;5070279;28;20177;-74
2022/07/30 06:39:14;;;;;;;0.90;0.90;;;;;;;15.62;100.00;100560.97;5072835;28;20171;-75
2022/07/30 06:41:40;;;;;;;2.83;0.70;;;;;;;15.67;100.00;100566.25;5074640;28;20201;-75
2022/07/30 06:44:05;;;;;;;0.50;0.50;;;;;;;15.74;100.00;100568.41;5074421;28;20175;-75
2022/07/30 06:46:30;;;;;;;1.00;0.90;;;;;;;15.77;100.00;100556.72;5074577;28;20178;-75
2022/07/30 06:48:56;;;;;;;0.80;0.80;;;;;;;15.88;100.00;100557.06;5074100;28;20536;-76
2022/07/30 06:51:21;;;;;;;0.13;0.13;;;;;;;15.92;100.00;100561.56;5074313;28;20194;-76
2022/07/30 06:53:47;;;;;;;0.40;0.40;;;;;;;16.06;100.00;100563.97;5073084;28;20583;-75
2022/07/30 06:56:12;;;;;;;0.00;0.00;;;;;;;16.18;100.00;100560.38;5073425;28;20538;-76
2022/07/30 06:58:38;;;;;;;0.00;0.00;;;;;;;16.23;100.00;100562.91;5072516;28;20577;-75
2022/07/30 07:01:04;;;;;;;0.50;0.50;;;;;;;16.42;100.00;100570.56;5074203;28;20179;-75
2022/07/30 07:03:29;;;;;;;0.00;0.00;;;;;;;16.52;100.00;100567.34;5074169;28;20699;-76
2022/07/30 07:05:54;;;;;;;0.00;0.00;;;;;;;16.65;100.00;100571.69;5074089;28;20210;-75
2022/07/30 07:08:20;;;;;;;0.93;0.30;;;;;;;16.78;100.00;100576.06;5072347;28;20232;-76
2022/07/30 07:10:45;;;;;;;0.00;0.00;;;;;;;16.89;100.00;100562.53;5074008;28;20209;-76
2022/07/30 07:13:10;;;;;;;0.00;0.00;;;;;;;17.02;100.00;100577.91;5072727;28;20257;-75
2022/07/30 07:15:36;;;;;;;0.00;0.00;;;;;;;17.24;100.00;100573.78;5073960;28;20232;-76
2022/07/30 07:18:02;;;;;;;0.00;0.00;;;;;;;17.48;100.00;100579.16;5071362;28;20182;-75
2022/07/30 07:20:27;;;;;;;0.00;0.00;;;;;;;17.56;100.00;100582.91;5072095;28;20197;-76
2022/07/30 07:22:52;;;;;;;0.00;0.00;;;;;;;17.72;100.00;100583.75;5073278;28;20204;-74
2022/07/30 07:25:18;;;;;;;0.13;0.13;;;;;;;17.90;100.00;100588.91;5071995;28;20253;-75
2022/07/30 07:27:43;;;;;;;0.00;0.00;;;;;;;17.81;100.00;100578.06;5073488;28;20653;-75
2022/07/30 07:30:09;;;;;;;1.67;1.57;;;;;;;17.99;100.00;100572.97;5073633;28;20177;-75
2022/07/30 07:32:35;;;;;;;0.70;0.70;;;;;;;18.08;100.00;100573.56;5073697;28;20174;-75
2022/07/30 07:35:00;;;;;;;0.00;0.00;;;;;;;18.08;100.00;100571.63;5073520;28;20293;-75
2022/07/30 07:37:26;;;;;;;0.80;0.80;;;;;;;18.04;100.00;100573.47;5071919;28;20185;-76
2022/07/30 07:39:51;;;;;;;0.60;0.60;;;;;;;18.12;100.00;100568.94;5073110;28;20244;-75
2022/07/30 07:42:17;;;;;;;0.97;0.97;;;;;;;18.21;100.00;100566.75;5072031;28;20228;-75
2022/07/30 07:44:42;;;;;;;3.30;1.60;;;;;;;18.26;100.00;100574.00;5073326;28;20261;-75
2022/07/30 07:47:07;;;;;;;0.00;0.00;;;;;;;18.44;100.00;100564.13;5071616;28;20331;-75
2022/07/30 07:49:33;;;;;;;0.20;0.20;;;;;;;18.56;100.00;100565.97;5073029;28;20232;-75
2022/07/30 07:51:58;;;;;;;10.57;1.37;;;;;;;18.67;100.00;100573.38;5073239;28;20198;-75
2022/07/30 07:54:24;;;;;;;1.27;1.27;;;;;;;18.65;100.00;100566.59;5071937;28;20687;-76
2022/07/30 07:56:55;;;;;;;0.60;0.40;;;;;;;18.65;100.00;100561.84;5072792;28;20529;-76
2022/07/30 07:59:20;;;;;;;0.13;0.13;;;;;;;18.86;100.00;100555.97;5071678;28;20170;-81
2022/07/30 08:01:45;;;;;;;0.13;0.13;;;;;;;18.95;100.00;100551.03;5073089;28;20177;-80
2022/07/30 08:04:11;;;;;;;0.20;0.20;;;;;;;18.94;100.00;100549.41;5073028;28;20651;-80
2022/07/30 08:06:36;;;;;;;0.57;0.57;;;;;;;18.75;100.00;100549.41;5071372;28;20187;-77
2022/07/30 08:09:01;;;;;;;0.60;0.60;;;;;;;18.68;97.90;100544.53;5073033;28;20171;-76
2022/07/30 08:11:27;;;;;;;8.20;1.47;;;;;;;18.69;99.51;100554.44;5071022;28;20167;-75
2022/07/30 08:13:52;;;;;;;0.00;0.00;;;;;;;18.73;100.00;100554.50;5072285;28;20549;-77
2022/07/30 08:16:18;;;;;;;0.40;0.27;;;;;;;18.72;100.00;100555.69;5072423;28;20182;-77
2022/07/30 08:18:43;;;;;;;0.20;0.20;;;;;;;18.82;100.00;100555.09;5070872;28;20759;-76
2022/07/30 08:21:09;;;;;;;0.13;0.13;;;;;;;18.87;100.00;100554.81;5070792;28;20175;-76
2022/07/30 08:23:34;;;;;;;1.23;0.57;;;;;;;18.95;100.00;100552.97;5072313;28;20182;-75
2022/07/30 08:25:59;;;;;;;0.83;0.83;;;;;;;19.03;100.00;100551.94;5071879;28;20213;-77
2022/07/30 08:28:25;;;;;;;0.50;0.40;;;;;;;19.02;100.00;100555.88;5071986;28;20200;-76
2022/07/30 08:30:51;;;;;;;0.53;0.53;;;;;;;19.10;96.50;100556.84;5071945;28;20174;-77
2022/07/30 08:33:16;;;;;;;0.00;0.00;;;;;;;19.27;98.15;100564.69;5070267;28;20195;-75
2022/07/30 08:35:41;;;;;;;0.40;0.33;;;;;;;19.34;97.19;100570.34;5070566;28;20175;-75
2022/07/30 08:38:07;;;;;;;0.93;0.93;;;;;;;19.38;98.90;100565.66;5071613;28;20539;-77
2022/07/30 08:40:34;;;;;;;1.77;1.67;;;;;;;19.29;99.31;100568.69;5071775;28;20182;-77
2022/07/30 08:43:02;;;;;;;1.20;1.20;;;;;;;19.19;98.29;100569.28;5070708;28;20178;-77
2022/07/30 08:45:29;;;;;;;0.93;0.93;;;;;;;19.15;97.57;100576.72;5071733;28;20194;-77
2022/07/30 08:47:56;;;;;;;0.73;0.73;;;;;;;19.14;98.17;100572.34;5070395;28;20257;-77
2022/07/30 08:50:22;;;;;;;0.47;0.47;;;;;;;19.20;98.68;100578.38;5071771;28;20194;-76
2022/07/30 08:52:49;;;;;;;0.80;0.80;;;;;;;19.18;96.90;100577.94;5071762;28;20583;-76
2022/07/30 08:55:15;;;;;;;0.13;0.13;;;;;;;19.25;97.22;100578.91;5068603;28;20182;-76
2022/07/30 08:57:41;;;;;;;0.40;0.40;;;;;;;19.33;95.74;100572.31;5070298;28;20487;-76
2022/07/30 09:00:07;;;;;;;0.10;0.10;;;;;;;19.37;93.98;100580.69;5071302;28;20262;-76
2022/07/30 09:02:33;;;;;;;0.00;0.00;;;;;;;19.47;95.55;100571.78;5071222;28;20179;-77
2022/07/30 09:04:59;;;;;;;0.90;0.90;;;;;;;19.51;95.65;100578.19;5071755;28;20213;-74
2022/07/30 09:07:24;;;;;;;1.07;1.07;;;;;;;19.44;95.40;100566.97;5071624;28;20572;-76
2022/07/30 09:09:50;;;;;;;0.20;0.20;;;;;;;19.50;92.38;100573.81;5071645;28;20253;-76
2022/07/30 09:12:30;;;;;;;0.60;0.60;;;;;;;19.59;92.54;100573.59;5071743;28;20638;-75
2022/07/30 09:15:05;;;;;;;0.00;0.00;;;;;;;19.64;91.03;100578.03;5071557;28;20182;-75
2022/07/30 09:17:54;;;;;;;0.20;0.20;;;;;;;19.83;92.82;100575.22;5071467;28;20216;-76
2022/07/30 09:20:22;;;;;;;10.17;1.70;;;;;;;19.84;90.60;100579.59;5071383;28;20206;-76
2022/07/30 09:22:57;;;;;;;0.20;0.20;;;;;;;19.98;91.51;100573.47;5071549;28;20716;-76
2022/07/30 09:25:44;;;;;;;1.30;1.20;;;;;;;20.07;91.39;100580.34;5070143;28;20276;-76
2022/07/30 09:28:10;;;;;;;1.20;1.13;;;;;;;20.29;91.30;100575.13;5069751;28;20567;-75
2022/07/30 09:30:47;;;;;;;1.27;1.17;;;;;;;20.38;90.94;100582.00;5071362;28;20260;-74
2022/07/30 09:33:12;;;;;;;1.03;0.93;;;;;;;20.42;86.35;100582.09;5071492;28;20248;-76
2022/07/30 09:35:39;;;;;;;0.00;0.00;;;;;;;20.53;87.70;100587.78;5071309;28;20626;-74
2022/07/30 09:38:05;;;;;;;0.00;0.00;;;;;;;20.63;85.47;100596.28;5067198;28;20183;-76
2022/07/30 09:40:31;;;;;;;0.60;0.37;;;;;;;20.83;86.09;100598.91;5069840;28;20177;-74
2022/07/30 09:43:02;;;;;;;0.83;0.83;;;;;;;20.93;84.93;100595.47;5071166;28;20163;-74
2022/07/30 09:45:28;;;;;;;0.60;0.60;;;;;;;20.99;83.60;100602.31;5069805;28;20208;-75
2022/07/30 09:47:53;;;;;;;0.00;0.00;;;;;;;21.02;82.58;100598.75;5070923;28;20194;-75
2022/07/30 09:50:20;;;;;;;1.03;0.90;;;;;;;21.21;80.77;100598.59;5070645;28;20679;-75
2022/07/30 09:52:48;;;;;;;0.33;0.33;;;;;;;21.25;79.14;100598.66;5069886;28;20283;-77
2022/07/30 09:55:27;;;;;;;0.30;0.30;;;;;;;21.32;75.21;100601.53;5069652;28;20651;-77
2022/07/30 09:57:55;;;;;;;0.00;0.00;;;;;;;21.49;77.78;100614.00;5070085;28;20180;-77
2022/07/30 10:00:23;;;;;;;0.63;0.63;;;;;;;21.57;75.95;100608.16;5070661;28;20165;-74
2022/07/30 10:02:50;;;;;;;0.40;0.40;;;;;;;21.59;77.21;100605.78;5071007;28;20181;-74
2022/07/30 10:05:18;;;;;;;0.20;0.20;;;;;;;21.69;74.86;100612.63;5071208;28;20259;-74
2022/07/30 10:08:09;;;;;;;0.00;0.00;;;;;;;21.91;74.06;100603.28;5069384;28;20257;-74
2022/07/30 10:10:35;;;;;;;0.13;0.13;;;;;;;21.95;71.33;100603.31;5065537;28;20201;-74
2022/07/30 10:13:02;;;;;;;0.00;0.00;;;;;;;21.97;68.23;100598.97;5068600;28;20657;-75
2022/07/30 10:15:31;;;;;;;0.00;0.00;;;;;;;21.94;67.63;100598.94;5069524;28;20221;-75
2022/07/30 10:17:57;;;;;;;0.13;0.13;;;;;;;21.94;67.59;100593.38;5070526;28;20172;-74
2022/07/30 10:20:23;;;;;;;0.00;0.00;;;;;;;22.17;70.12;100602.34;5070624;28;20760;-75
2022/07/30 10:22:49;;;;;;;0.13;0.13;;;;;;;22.31;69.75;100603.63;5071008;28;20269;-75
2022/07/30 10:25:20;;;;;;;0.07;0.07;;;;;;;22.22;68.41;100604.75;5069347;28;20251;-75
2022/07/30 10:27:46;;;;;;;0.10;0.10;;;;;;;22.16;67.75;100602.72;5069105;28;20491;-75
2022/07/30 10:30:12;;;;;;;0.27;0.27;;;;;;;22.43;69.29;100597.75;5069889;28;20716;-76
2022/07/30 10:32:37;;;;;;;0.50;0.33;;;;;;;22.68;67.35;100597.88;5068913;28;20183;-74
2022/07/30 10:35:04;;;;;;;0.93;0.67;;;;;;;22.68;66.16;100595.88;5070135;28;20179;-75
2022/07/30 10:37:34;;;;;;;0.00;0.00;;;;;;;22.83;66.61;100596.78;5069955;28;20170;-75
2022/07/30 10:40:24;;;;;;;0.13;0.13;;;;;;;22.67;67.08;100602.66;5067424;28;20175;-74
2022/07/30 10:43:25;;;;;;;0.10;0.03;;;;;;;22.63;68.68;100599.06;5070517;28;20185;-75
2022/07/30 10:46:16;;;;;;;0.30;0.30;;;;;;;22.75;68.25;100597.94;5069290;28;20304;-73
2022/07/30 10:48:41;;;;;;;0.10;0.10;;;;;;;23.01;67.64;100594.91;5067969;28;20220;-75
2022/07/30 10:51:07;;;;;;;0.33;0.33;;;;;;;23.05;65.41;100598.50;5070208;28;20424;-74
2022/07/30 10:53:35;;;;;;;0.00;0.00;;;;;;;22.50;66.26;100598.59;5070403;28;20720;-75
2022/07/30 10:56:14;;;;;;;0.00;0.00;;;;;;;22.88;67.15;100593.66;5069746;28;20284;-75
2022/07/30 10:59:02;;;;;;;0.10;0.10;;;;;;;23.28;67.34;100591.78;5068795;28;20181;-74
2022/07/30 11:01:45;;;;;;;0.00;0.00;;;;;;;23.48;66.70;100595.81;5068624;28;20163;-74
2022/07/30 11:04:22;;;;;;;0.00;0.00;;;;;;;23.59;65.94;100591.09;5069227;28;20179;-74
2022/07/30 11:06:48;;;;;;;0.00;0.00;;;;;;;23.67;64.36;100594.69;5070450;28;20171;-75
2022/07/30 11:09:36;;;;;;;0.57;0.57;;;;;;;23.77;63.87;100581.94;5069689;28;20273;-75
2022/07/30 11:12:04;;;;;;;0.37;0.37;;;;;;;23.90;64.60;100586.75;5070316;28;20179;-74
2022/07/30 11:14:44;;;;;;;0.30;0.30;;;;;;;23.84;63.24;100582.72;5068995;28;20175;-74
2022/07/30 11:17:17;;;;;;;0.10;0.10;;;;;;;23.78;64.03;100584.34;5070045;28;20651;-74
2022/07/30 11:20:01;;;;;;;0.00;0.00;;;;;;;23.85;65.04;100587.13;5070095;28;20241;-74
2022/07/30 11:22:30;;;;;;;0.00;0.00;;;;;;;23.97;63.23;100588.72;5068779;28;20213;-75
2022/07/30 11:24:56;;;;;;;0.00;0.00;;;;;;;23.78;61.65;100586.34;5072058;28;20197;-73
2022/07/30 11:27:39;;;;;;;0.00;0.00;;;;;;;23.93;60.24;100597.09;5073528;28;20182;-75